Time;durP1;ratioP1;P1;durP2;ratioP2;P2;SDS_P1;SDS_P2;PMS_P1;PMS_P2;Temp;Humidity;BMP_temperature;BMP_pressure;BME280_temperature;BME280_humidity;BME280_pressure;Samples;Min_cycle;Max_cycle;Signal;HPM_P1;HPM_P2
2022/07/29 00:00:30;;;;;;;2.83;1.30;;;;;;;15.15;100.00;99942.16;5173743;27;20050;-47
2022/07/29 00:02:56;;;;;;;1.52;1.20;;;;;;;15.23;100.00;99946.63;5173631;27;20476;-51
2022/07/29 00:05:22;;;;;;;3.58;1.50;;;;;;;15.20;100.00;99944.59;5173627;27;20098;-48
2022/07/29 00:07:48;;;;;;;3.55;1.50;;;;;;;15.14;100.00;99952.41;5173465;27;20051;-48
2022/07/29 00:10:15;;;;;;;4.15;1.63;;;;;;;15.17;100.00;99953.63;5173251;27;20046;-47
2022/07/29 00:12:41;;;;;;;3.03;1.45;;;;;;;15.19;100.00;99963.13;5173336;27;20141;-48
2022/07/29 00:15:08;;;;;;;3.08;1.55;;;;;;;15.12;100.00;99951.19;5173410;27;20057;-48
2022/07/29 00:17:35;;;;;;;2.78;1.60;;;;;;;15.07;100.00;99950.38;5173318;27;20056;-47
2022/07/29 00:20:01;;;;;;;4.65;1.30;;;;;;;15.04;100.00;99961.38;5173389;27;20050;-47
2022/07/29 00:22:28;;;;;;;1.88;1.10;;;;;;;14.94;100.00;99951.00;5173176;27;20485;-47
2022/07/29 00:24:54;;;;;;;1.98;1.50;;;;;;;15.07;100.00;99944.84;5173388;27;20046;-47
2022/07/29 00:27:20;;;;;;;1.63;1.30;;;;;;;15.04;100.00;99955.84;5173241;27;20050;-48
2022/07/29 00:29:46;;;;;;;3.70;2.00;;;;;;;14.96;100.00;99946.69;5173597;27;20137;-48
2022/07/29 00:32:13;;;;;;;1.98;1.42;;;;;;;15.03;100.00;99952.28;5173191;27;20075;-47
2022/07/29 00:37:24;;;;;;;2.67;1.45;;;;;;;14.90;100.00;99947.38;5173210;27;20118;-47
2022/07/29 00:39:50;;;;;;;2.42;1.55;;;;;;;14.76;100.00;99940.50;5172778;27;20061;-47
2022/07/29 00:42:17;;;;;;;2.88;1.58;;;;;;;14.87;100.00;99934.34;5172281;27;20247;-49
2022/07/29 00:44:44;;;;;;;3.35;1.95;;;;;;;14.87;100.00;99932.38;5172963;27;20046;-47
2022/07/29 00:47:11;;;;;;;1.92;1.33;;;;;;;14.90;100.00;99919.78;5173132;27;20467;-48
2022/07/29 00:49:39;;;;;;;2.25;1.40;;;;;;;14.92;100.00;99917.44;5172913;27;20058;-49
2022/07/29 00:52:07;;;;;;;2.78;1.80;;;;;;;14.93;100.00;99917.06;5173079;27;20050;-46
2022/07/29 00:54:33;;;;;;;2.65;1.40;;;;;;;14.94;100.00;99917.84;5172674;27;20046;-47
2022/07/29 00:57:00;;;;;;;3.03;1.40;;;;;;;14.77;100.00;99916.47;5172670;27;20042;-47
2022/07/29 00:59:27;;;;;;;1.73;1.40;;;;;;;14.80;100.00;99907.44;5172677;27;20049;-47
2022/07/29 01:01:53;;;;;;;4.78;1.63;;;;;;;14.75;100.00;99910.50;5172622;27;20604;-48
2022/07/29 01:04:20;;;;;;;4.25;1.67;;;;;;;14.77;100.00;99899.91;5172702;27;20048;-47
2022/07/29 01:06:47;;;;;;;3.20;1.70;;;;;;;14.79;100.00;99897.53;5172604;27;20046;-49
2022/07/29 01:09:14;;;;;;;3.20;1.90;;;;;;;14.75;100.00;99891.19;5172618;27;20083;-47
2022/07/29 01:11:42;;;;;;;1.90;1.42;;;;;;;14.67;100.00;99886.75;5172453;27;20050;-51
2022/07/29 01:14:09;;;;;;;2.67;1.70;;;;;;;14.73;100.00;99877.00;5172839;27;20129;-48
2022/07/29 01:16:42;;;;;;;1.50;1.30;;;;;;;14.66;100.00;99880.47;5172319;27;20046;-51
2022/07/29 01:19:22;;;;;;;2.53;1.55;;;;;;;14.64;100.00;99873.72;5172685;27;20058;-49
2022/07/29 01:21:55;;;;;;;5.90;1.58;;;;;;;14.57;100.00;99864.16;5172413;27;20140;-47
2022/07/29 01:24:46;;;;;;;4.07;1.70;;;;;;;14.59;100.00;99869.31;5172351;27;20054;-47
2022/07/29 01:27:32;;;;;;;4.35;1.67;;;;;;;14.57;100.00;99850.38;5172555;27;20552;-47
2022/07/29 01:30:02;;;;;;;4.00;1.58;;;;;;;14.55;100.00;99833.38;5172286;27;20042;-48
2022/07/29 01:32:31;;;;;;;2.58;1.58;;;;;;;14.62;100.00;99824.41;5172278;27;20057;-48
2022/07/29 01:35:04;;;;;;;1.65;1.55;;;;;;;14.55;100.00;99814.06;5172234;27;20082;-48
2022/07/29 01:37:36;;;;;;;4.43;1.83;;;;;;;14.57;100.00;99795.19;5172328;27;20501;-47
2022/07/29 01:40:05;;;;;;;4.38;1.45;;;;;;;14.62;100.00;99807.06;5172193;27;20054;-47
2022/07/29 01:42:36;;;;;;;3.63;1.40;;;;;;;14.55;100.00;99786.47;5172240;27;20182;-48
2022/07/29 01:45:10;;;;;;;2.58;1.80;;;;;;;14.62;100.00;99787.75;5172373;27;20129;-47
2022/07/29 01:47:42;;;;;;;9.05;1.63;;;;;;;14.59;100.00;99797.56;5172128;27;20323;-48
2022/07/29 01:50:12;;;;;;;4.68;1.60;;;;;;;14.44;100.00;99791.06;5172085;27;20042;-48
2022/07/29 01:52:45;;;;;;;1.85;1.45;;;;;;;14.46;100.00;99776.88;5173780;27;20054;-48
2022/07/29 01:55:15;;;;;;;3.65;1.70;;;;;;;14.55;100.00;99769.13;5176177;27;20042;-47
2022/07/29 01:57:45;;;;;;;7.25;1.60;;;;;;;14.54;100.00;99762.03;5175631;27;20046;-47
2022/07/29 02:00:15;;;;;;;3.22;1.63;;;;;;;14.49;100.00;99749.31;5175527;27;20046;-47
2022/07/29 02:02:43;;;;;;;2.88;1.60;;;;;;;14.53;100.00;99761.25;5175831;27;20054;-46
2022/07/29 02:05:12;;;;;;;2.95;1.70;;;;;;;14.46;100.00;99760.31;5175706;27;20042;-47
2022/07/29 02:07:42;;;;;;;4.18;1.60;;;;;;;14.45;100.00;99759.53;5175612;27;20057;-47
2022/07/29 02:10:10;;;;;;;5.25;1.83;;;;;;;14.44;100.00;99760.72;5175431;27;20042;-46
2022/07/29 02:12:39;;;;;;;3.28;1.65;;;;;;;14.32;100.00;99758.19;5175598;27;20137;-48
2022/07/29 02:15:07;;;;;;;5.10;2.35;;;;;;;14.33;100.00;99751.53;5175371;27;20046;-49
2022/07/29 02:17:41;;;;;;;6.75;1.80;;;;;;;14.40;100.00;99754.38;5175459;27;20050;-48
2022/07/29 02:20:09;;;;;;;4.45;1.60;;;;;;;14.37;100.00;99760.63;5175293;27;20102;-47
2022/07/29 02:22:39;;;;;;;1.42;1.27;;;;;;;14.38;100.00;99755.91;5175234;27;20050;-49
2022/07/29 02:25:07;;;;;;;2.53;1.83;;;;;;;14.30;100.00;99758.59;5175490;27;20088;-52
2022/07/29 02:27:34;;;;;;;4.07;1.80;;;;;;;14.33;100.00;99752.31;5175297;27;20136;-51
2022/07/29 02:30:03;;;;;;;1.40;1.30;;;;;;;14.31;100.00;99757.41;5175523;27;20512;-49
2022/07/29 02:32:31;;;;;;;1.90;1.70;;;;;;;14.30;100.00;99755.03;5175079;27;20066;-49
2022/07/29 02:35:01;;;;;;;2.55;1.70;;;;;;;14.33;100.00;99752.31;5175294;27;20061;-51
2022/07/29 02:37:29;;;;;;;2.90;1.70;;;;;;;14.23;100.00;99739.19;5174876;27;20092;-50
2022/07/29 02:39:57;;;;;;;3.75;1.58;;;;;;;14.33;100.00;99732.22;5175194;27;20415;-48
2022/07/29 02:42:27;;;;;;;3.20;1.30;;;;;;;14.35;100.00;99746.41;5174824;27;20047;-52
2022/07/29 02:44:53;;;;;;;2.55;1.50;;;;;;;14.44;100.00;99746.91;5175080;27;20090;-48
2022/07/29 02:47:23;;;;;;;4.10;2.00;;;;;;;14.42;100.00;99752.00;5174976;27;20046;-47
2022/07/29 02:49:56;;;;;;;3.72;1.60;;;;;;;14.43;100.00;99761.06;5174823;27;20046;-48
2022/07/29 02:52:26;;;;;;;1.95;1.33;;;;;;;14.59;100.00;99762.50;5174813;27;20050;-49
2022/07/29 02:54:57;;;;;;;3.35;1.65;;;;;;;14.90;100.00;99770.72;5174713;27;20047;-48
2022/07/29 02:57:32;;;;;;;1.92;1.33;;;;;;;15.52;100.00;99810.31;5174727;27;20423;-47
2022/07/29 03:00:03;;;;;;;3.38;1.20;;;;;;;15.83;100.00;99874.59;5174573;27;20042;-50
2022/07/29 03:02:34;;;;;;;1.70;1.17;;;;;;;16.43;100.00;99937.84;5175021;27;20088;-48
2022/07/29 03:05:02;;;;;;;1.33;1.10;;;;;;;17.03;100.00;99969.84;5173699;27;20051;-48
2022/07/29 03:07:30;;;;;;;4.28;1.67;;;;;;;17.45;100.00;99967.59;5174882;27;20052;-48
2022/07/29 03:09:57;;;;;;;1.45;1.10;;;;;;;17.87;100.00;99903.91;5174668;27;20054;-48
2022/07/29 03:12:25;;;;;;;1.85;1.20;;;;;;;18.13;100.00;99801.22;5174398;27;20050;-49
2022/07/29 03:14:51;;;;;;;3.38;1.10;;;;;;;18.43;100.00;99634.97;5174403;27;20053;-49
2022/07/29 03:17:18;;;;;;;1.25;1.10;;;;;;;18.74;100.00;99507.44;5174452;27;20061;-49
2022/07/29 03:19:44;;;;;;;1.73;1.05;;;;;;;18.96;100.00;99389.34;5174573;27;20042;-50
2022/07/29 03:22:12;;;;;;;1.60;1.42;;;;;;;19.21;100.00;99327.84;5174232;27;20517;-50
2022/07/29 03:24:38;;;;;;;1.10;0.98;;;;;;;19.31;100.00;99183.59;5174452;27;20136;-50
2022/07/29 03:27:05;;;;;;;1.38;1.10;;;;;;;19.61;100.00;99232.69;5174201;27;20054;-49
2022/07/29 03:29:32;;;;;;;3.75;1.40;;;;;;;19.73;100.00;99132.78;5174677;27;20114;-51
2022/07/29 03:31:59;;;;;;;1.85;1.40;;;;;;;20.12;100.00;99033.75;5173912;27;20098;-49
2022/07/29 03:34:25;;;;;;;2.72;1.30;;;;;;;19.97;100.00;98969.31;5174506;27;20453;-50
2022/07/29 03:36:51;;;;;;;1.75;1.20;;;;;;;20.27;100.00;98945.16;5174246;27;20079;-50
2022/07/29 03:39:21;;;;;;;1.77;1.33;;;;;;;20.04;100.00;98943.31;5174436;27;20050;-52
2022/07/29 03:41:52;;;;;;;5.93;1.60;;;;;;;20.40;100.00;98858.91;5174058;27;20061;-52
2022/07/29 03:44:19;;;;;;;1.10;1.10;;;;;;;20.57;100.00;98820.69;5173842;27;20050;-52
2022/07/29 03:46:48;;;;;;;3.45;1.30;;;;;;;20.20;100.00;98868.19;5173954;27;20186;-48
2022/07/29 03:49:16;;;;;;;4.30;1.52;;;;;;;19.94;100.00;98924.88;5174003;27;20183;-51
2022/07/29 03:51:43;;;;;;;2.80;1.50;;;;;;;20.70;100.00;98829.09;5174174;27;20555;-48
2022/07/29 03:54:09;;;;;;;2.97;1.30;;;;;;;20.34;100.00;98782.72;5173654;27;20050;-49
2022/07/29 03:56:39;;;;;;;3.28;1.00;;;;;;;20.99;100.00;98720.34;5173869;27;20050;-50
2022/07/29 03:59:08;;;;;;;1.80;1.30;;;;;;;21.38;100.00;98663.34;5173424;27;20458;-50
2022/07/29 04:01:35;;;;;;;1.40;1.30;;;;;;;21.44;100.00;98628.09;5173877;27;20106;-50
2022/07/29 04:04:03;;;;;;;3.10;1.48;;;;;;;21.80;100.00;98593.34;5173739;27;20050;-48
2022/07/29 04:06:37;;;;;;;2.53;1.00;;;;;;;21.83;100.00;98582.06;5173630;27;20043;-52
2022/07/29 04:09:03;;;;;;;;;;;;;;;22.37;100.00;98549.31;5174502;27;20053;-51
2022/07/29 04:11:29;;;;;;;4.28;1.30;;;;;;;22.27;100.00;98534.56;5173799;27;19994;-50
2022/07/29 04:13:55;;;;;;;4.78;1.40;;;;;;;22.27;100.00;98531.75;5173967;27;20057;-49
2022/07/29 04:16:22;;;;;;;1.30;1.00;;;;;;;22.54;100.00;98517.09;5173386;27;20049;-49
2022/07/29 04:18:48;;;;;;;2.63;1.33;;;;;;;22.73;100.00;98517.16;5173519;27;20133;-52
2022/07/29 04:21:15;;;;;;;2.50;1.33;;;;;;;23.04;100.00;98508.66;5173228;27;20050;-49
2022/07/29 04:23:41;;;;;;;2.42;1.20;;;;;;;22.96;100.00;98518.59;5173284;27;20137;-49
2022/07/29 04:26:09;;;;;;;1.60;1.40;;;;;;;23.27;100.00;98518.44;5173065;27;20047;-48
2022/07/29 04:28:35;;;;;;;2.55;1.50;;;;;;;23.35;100.00;98528.06;5173247;27;20086;-48
2022/07/29 04:31:02;;;;;;;1.92;1.40;;;;;;;23.67;100.00;98515.44;5173124;27;20106;-52
2022/07/29 04:33:28;;;;;;;2.33;1.25;;;;;;;23.71;100.00;98538.47;5173264;27;20537;-50
2022/07/29 04:35:55;;;;;;;1.70;1.30;;;;;;;23.99;100.00;98541.19;5173182;27;20050;-52
2022/07/29 04:38:21;;;;;;;2.00;1.30;;;;;;;24.25;100.00;98554.78;5172937;27;20050;-51
2022/07/29 04:40:48;;;;;;;3.90;1.80;;;;;;;24.11;100.00;98554.22;5172975;27;20061;-52
2022/07/29 04:43:15;;;;;;;1.52;1.42;;;;;;;23.93;100.00;98543.88;5172990;27;20099;-52
2022/07/29 04:45:42;;;;;;;8.43;2.00;;;;;;;23.46;100.00;98553.56;5173101;27;20048;-52
2022/07/29 04:48:08;;;;;;;4.50;1.70;;;;;;;23.88;100.00;98536.09;5172869;27;20053;-52
2022/07/29 04:50:38;;;;;;;2.53;1.70;;;;;;;24.06;100.00;98562.47;5172964;27;20106;-52
2022/07/29 04:53:04;;;;;;;3.55;1.50;;;;;;;24.41;100.00;98566.44;5172640;27;20496;-52
2022/07/29 04:55:30;;;;;;;5.97;1.42;;;;;;;24.10;100.00;98571.50;5173143;27;20050;-51
2022/07/29 04:57:57;;;;;;;4.22;1.63;;;;;;;23.77;100.00;98555.41;5172853;27;20133;-53
2022/07/29 05:00:23;;;;;;;2.33;1.50;;;;;;;24.39;100.00;98568.13;5172723;27;20053;-50
2022/07/29 05:02:49;;;;;;;3.00;1.27;;;;;;;24.21;100.00;98571.00;5172593;27;20552;-52
2022/07/29 05:05:16;;;;;;;1.52;1.38;;;;;;;24.53;100.00;98592.69;5172709;27;20458;-53
2022/07/29 05:07:43;;;;;;;1.80;1.60;;;;;;;24.87;100.00;98601.88;5172291;27;20404;-51
2022/07/29 05:10:09;;;;;;;1.77;1.30;;;;;;;24.44;100.00;98617.16;5172362;27;20544;-52
2022/07/29 05:12:36;;;;;;;3.08;1.50;;;;;;;24.09;100.00;98581.13;5172746;27;20159;-49
2022/07/29 05:15:02;;;;;;;2.47;2.17;;;;;;;23.92;100.00;98589.88;5172397;27;20402;-50
2022/07/29 05:17:28;;;;;;;3.40;1.73;;;;;;;23.34;100.00;98551.69;5172599;27;20495;-51
2022/07/29 05:19:54;;;;;;;2.78;1.40;;;;;;;23.20;100.00;98547.50;5172305;27;20133;-50
2022/07/29 05:22:21;;;;;;;2.65;2.00;;;;;;;23.28;100.00;98547.97;5172726;27;20064;-50
2022/07/29 05:24:48;;;;;;;2.65;1.80;;;;;;;23.49;100.00;98549.81;5172237;27;20061;-52
2022/07/29 05:27:14;;;;;;;1.92;1.80;;;;;;;22.90;100.00;98553.97;5171717;27;20057;-51
2022/07/29 05:29:41;;;;;;;6.30;2.00;;;;;;;22.15;100.00;98566.13;5172321;27;20060;-52
2022/07/29 05:32:07;;;;;;;2.80;1.85;;;;;;;22.53;100.00;98563.03;5172343;27;20077;-49
2022/07/29 05:34:33;;;;;;;3.75;1.70;;;;;;;21.83;100.00;98595.25;5172326;27;20056;-52
2022/07/29 05:36:59;;;;;;;6.32;1.95;;;;;;;21.31;100.00;98625.31;5171948;27;20043;-51
2022/07/29 05:39:26;;;;;;;1.70;1.60;;;;;;;21.46;100.00;98741.97;5172277;27;20438;-48
2022/07/29 05:41:52;;;;;;;2.67;1.40;;;;;;;22.63;100.00;98614.13;5171859;27;20054;-49
2022/07/29 05:44:19;;;;;;;3.88;3.58;;;;;;;23.36;100.00;98566.00;5172202;27;20420;-49
2022/07/29 05:46:45;;;;;;;4.38;2.28;;;;;;;23.02;100.00;98555.84;5171930;27;20050;-50
2022/07/29 05:49:11;;;;;;;3.35;2.10;;;;;;;22.35;100.00;98582.50;5172096;27;20057;-48
2022/07/29 05:51:38;;;;;;;3.28;1.75;;;;;;;21.84;100.00;98608.72;5171831;27;20051;-51
2022/07/29 05:54:04;;;;;;;1.88;1.75;;;;;;;20.60;100.00;98750.97;5172194;27;20102;-50
2022/07/29 05:56:30;;;;;;;1.90;1.80;;;;;;;20.29;100.00;98903.72;5172161;27;20046;-52
2022/07/29 05:58:57;;;;;;;6.03;3.80;;;;;;;19.92;100.00;99044.16;5172020;27;20106;-48
2022/07/29 06:01:24;;;;;;;3.20;1.90;;;;;;;19.92;100.00;99103.38;5172203;27;20149;-53
2022/07/29 06:03:50;;;;;;;2.25;1.60;;;;;;;19.71;100.00;99167.78;5171882;27;20748;-51
2022/07/29 06:06:17;;;;;;;1.70;1.60;;;;;;;19.65;100.00;99248.13;5171973;27;20054;-51
2022/07/29 06:08:43;;;;;;;3.00;2.25;;;;;;;19.60;100.00;99276.41;5171603;27;20133;-51
2022/07/29 06:11:09;;;;;;;2.30;2.10;;;;;;;18.85;100.00;99368.44;5171605;27;20054;-50
2022/07/29 06:13:35;;;;;;;2.80;2.50;;;;;;;18.59;100.00;99640.00;5171578;27;20488;-52
2022/07/29 06:16:02;;;;;;;3.10;2.80;;;;;;;18.16;100.00;99708.84;5171574;27;20050;-49
2022/07/29 06:18:29;;;;;;;3.70;2.75;;;;;;;18.26;100.00;99785.72;5171638;27;20493;-50
2022/07/29 06:20:55;;;;;;;3.50;2.78;;;;;;;18.14;100.00;99811.94;5171825;27;20058;-49
2022/07/29 06:23:21;;;;;;;3.83;2.80;;;;;;;18.13;100.00;99827.00;5171382;27;20043;-50
2022/07/29 06:25:48;;;;;;;4.65;2.92;;;;;;;18.06;100.00;99869.44;5171609;27;20126;-53
2022/07/29 06:28:14;;;;;;;4.55;2.90;;;;;;;18.15;100.00;99849.59;5171323;27;20503;-50
2022/07/29 06:30:40;;;;;;;5.15;2.80;;;;;;;18.00;100.00;99861.91;5171369;27;20050;-50
2022/07/29 06:33:08;;;;;;;9.27;2.20;;;;;;;17.46;100.00;99902.66;5171453;27;20060;-51
2022/07/29 06:35:35;;;;;;;2.22;2.03;;;;;;;17.85;100.00;99936.78;5171470;27;20069;-51
2022/07/29 06:38:02;;;;;;;3.25;1.80;;;;;;;17.82;100.00;99914.59;5171177;27;20057;-52
2022/07/29 06:43:12;;;;;;;4.10;2.03;;;;;;;17.83;100.00;99936.41;5174803;27;20149;-51
2022/07/29 06:45:40;;;;;;;5.40;1.83;;;;;;;17.90;100.00;99930.09;5174619;27;20464;-53
2022/07/29 06:48:07;;;;;;;4.20;1.92;;;;;;;17.73;100.00;99926.09;5174843;27;20060;-48
2022/07/29 06:50:34;;;;;;;2.78;2.03;;;;;;;17.80;100.00;99919.78;5174914;27;20072;-49
2022/07/29 06:53:00;;;;;;;2.85;1.88;;;;;;;17.92;100.00;99926.91;5174406;27;20058;-52
2022/07/29 06:55:26;;;;;;;2.17;2.00;;;;;;;17.96;100.00;99902.72;5174669;27;20046;-52
2022/07/29 06:57:52;;;;;;;2.20;1.85;;;;;;;17.98;100.00;99869.84;5174523;27;20484;-51
2022/07/29 07:00:19;;;;;;;4.72;1.83;;;;;;;18.13;100.00;99870.59;5174731;27;20175;-49
2022/07/29 07:02:45;;;;;;;2.13;1.88;;;;;;;18.34;100.00;99851.94;5174305;27;20050;-51
2022/07/29 07:10:40;;;;;;;1.67;1.50;;;;;;;18.50;100.00;99601.63;5174601;27;20045;-50
2022/07/29 07:13:07;;;;;;;11.38;1.83;;;;;;;18.78;100.00;99647.84;5174232;27;20050;-52
2022/07/29 07:15:33;;;;;;;1.73;1.63;;;;;;;18.74;100.00;99566.53;5174366;27;20424;-50
2022/07/29 07:17:59;;;;;;;3.22;1.60;;;;;;;18.92;100.00;99512.78;5174393;27;20399;-49
2022/07/29 07:20:26;;;;;;;2.55;1.70;;;;;;;18.76;100.00;99533.59;5174106;27;20050;-49
2022/07/29 07:22:53;;;;;;;1.63;1.52;;;;;;;18.92;100.00;99524.69;5174344;27;20086;-51
2022/07/29 07:25:19;;;;;;;1.98;1.40;;;;;;;19.00;100.00;99497.66;5174069;27;20133;-49
2022/07/29 07:27:45;;;;;;;1.52;1.40;;;;;;;19.42;100.00;99396.25;5174396;27;20073;-52
2022/07/29 07:30:12;;;;;;;2.63;1.58;;;;;;;19.13;100.00;99373.63;5174140;27;20046;-51
2022/07/29 07:32:39;;;;;;;1.63;1.40;;;;;;;19.45;100.00;99266.72;5174113;27;20061;-51
2022/07/29 07:35:07;;;;;;;1.85;1.70;;;;;;;19.19;100.00;99358.06;5173933;27;20053;-52
2022/07/29 07:37:34;;;;;;;1.83;1.20;;;;;;;19.77;100.00;99248.75;5173884;27;20077;-51
2022/07/29 07:40:01;;;;;;;6.07;1.73;;;;;;;19.54;100.00;99222.50;5173563;27;20042;-51
2022/07/29 07:42:27;;;;;;;4.72;2.30;;;;;;;19.70;100.00;99185.69;5173937;27;20050;-50
2022/07/29 07:44:54;;;;;;;1.98;1.40;;;;;;;19.72;100.00;99200.72;5173887;27;20424;-49
2022/07/29 07:47:20;;;;;;;1.30;1.20;;;;;;;19.72;100.00;99194.38;5173796;27;20049;-51
2022/07/29 07:49:46;;;;;;;2.75;1.55;;;;;;;20.02;100.00;99171.13;5173596;27;20053;-49
2022/07/29 07:52:13;;;;;;;1.23;1.15;;;;;;;19.91;100.00;99034.25;5173495;27;20138;-52
2022/07/29 07:54:40;;;;;;;1.55;1.45;;;;;;;20.06;100.00;98987.41;5173847;27;20141;-49
2022/07/29 07:57:06;;;;;;;0.95;0.95;;;;;;;19.51;100.00;99118.47;5173397;27;20050;-49
2022/07/29 07:59:32;;;;;;;3.53;1.35;;;;;;;19.04;100.00;99178.88;5173685;27;20072;-50
2022/07/29 08:01:59;;;;;;;1.40;1.10;;;;;;;19.13;100.00;99220.00;5173351;27;20050;-50
2022/07/29 08:04:26;;;;;;;1.45;1.17;;;;;;;19.48;100.00;99126.88;5173345;27;20046;-51
2022/07/29 08:06:54;;;;;;;3.47;1.35;;;;;;;19.33;100.00;99148.59;5173110;27;20047;-50
2022/07/29 08:09:20;;;;;;;3.17;2.65;;;;;;;19.07;100.00;99232.81;5173592;27;20050;-51
2022/07/29 08:11:47;;;;;;;4.68;1.58;;;;;;;19.38;100.00;99172.34;5173343;27;20106;-49
2022/07/29 08:14:14;;;;;;;1.95;1.20;;;;;;;19.88;100.00;99130.47;5173260;27;20178;-51
2022/07/29 08:16:40;;;;;;;2.13;1.50;;;;;;;20.15;100.00;99007.06;5173274;27;20512;-51
2022/07/29 08:19:06;;;;;;;3.35;2.28;;;;;;;19.92;100.00;99028.25;5173144;27;20050;-52
2022/07/29 08:21:32;;;;;;;1.40;1.30;;;;;;;19.46;100.00;99109.81;5173471;27;20050;-50
2022/07/29 08:26:40;;;;;;;1.90;1.70;;;;;;;19.61;100.00;99211.22;5172071;27;20555;-50
2022/07/29 08:29:07;;;;;;;3.15;1.85;;;;;;;19.35;100.00;99223.22;5173198;27;20057;-50
2022/07/29 08:31:33;;;;;;;6.40;1.50;;;;;;;19.83;100.00;99136.56;5173142;27;20223;-52
2022/07/29 08:34:00;;;;;;;3.35;1.52;;;;;;;19.62;100.00;99092.44;5173238;27;20085;-50
2022/07/29 08:36:26;;;;;;;2.50;1.50;;;;;;;20.00;100.00;99025.31;5173256;27;20157;-49
2022/07/29 08:38:52;;;;;;;1.98;1.42;;;;;;;20.09;100.00;98930.88;5173318;27;20133;-49
2022/07/29 08:41:20;;;;;;;1.80;1.30;;;;;;;20.13;100.00;98873.16;5172750;27;20053;-51
2022/07/29 08:43:46;;;;;;;1.10;1.10;;;;;;;20.73;100.00;98809.50;5173227;27;20053;-52
2022/07/29 08:46:13;;;;;;;1.85;1.20;;;;;;;20.87;100.00;98728.28;5172765;27;20046;-52
2022/07/29 08:48:41;;;;;;;1.33;1.23;;;;;;;20.70;100.00;98748.31;5172793;27;20481;-52
2022/07/29 08:51:08;;;;;;;2.42;1.50;;;;;;;20.73;100.00;98741.88;5172847;27;20082;-53
2022/07/29 08:53:37;;;;;;;1.52;1.42;;;;;;;20.20;100.00;98825.66;5173047;27;20513;-51
2022/07/29 08:56:04;;;;;;;2.90;2.55;;;;;;;20.35;100.00;98865.00;5172733;27;20056;-52
2022/07/29 08:58:33;;;;;;;1.75;1.10;;;;;;;19.96;100.00;98972.53;5172577;27;20049;-49
2022/07/29 09:01:02;;;;;;;1.20;1.13;;;;;;;19.97;100.00;98932.38;5172738;27;20064;-51
2022/07/29 09:03:32;;;;;;;3.53;1.20;;;;;;;20.44;100.00;98891.00;5171706;27;20557;-52
2022/07/29 09:05:58;;;;;;;1.42;1.17;;;;;;;20.71;100.00;98872.44;5172399;27;20050;-48
2022/07/29 09:08:26;;;;;;;6.47;1.40;;;;;;;21.99;100.00;98740.16;5172164;27;20046;-53
2022/07/29 09:10:53;;;;;;;1.40;1.30;;;;;;;22.03;100.00;98693.34;5172765;27;20405;-51
2022/07/29 09:13:19;;;;;;;3.17;1.30;;;;;;;22.19;100.00;98686.84;5172360;27;20056;-48
2022/07/29 09:15:45;;;;;;;1.63;1.40;;;;;;;22.19;100.00;98686.03;5172712;27;20497;-49
2022/07/29 09:18:12;;;;;;;3.85;1.13;;;;;;;22.15;100.00;98690.94;5172173;27;20421;-50
2022/07/29 09:23:39;;;;;;;1.30;1.20;;;;;;;22.20;100.00;98712.75;5107372;28;20454;-50
2022/07/29 09:26:06;;;;;;;1.90;1.60;;;;;;;23.22;100.00;98725.97;5107835;28;20058;-51
2022/07/29 09:28:32;;;;;;;1.48;1.15;;;;;;;22.91;100.00;98776.31;5136489;27;20070;-50
2022/07/29 09:30:59;;;;;;;1.25;1.15;;;;;;;22.70;100.00;98736.78;5172171;27;20054;-51
2022/07/29 09:33:34;;;;;;;4.82;1.20;;;;;;;23.92;100.00;98768.28;5172057;27;20050;-49
2022/07/29 09:36:04;;;;;;;7.40;3.15;;;;;;;24.15;100.00;98837.66;5172142;27;20045;-48
2022/07/29 09:38:30;;;;;;;3.67;1.80;;;;;;;24.99;100.00;98870.06;5172437;27;20101;-49
2022/07/29 09:40:57;;;;;;;1.92;1.60;;;;;;;25.66;100.00;98876.56;5172088;27;20480;-49
2022/07/29 09:43:24;;;;;;;1.42;1.20;;;;;;;25.54;100.00;98953.34;5171807;27;20050;-52
2022/07/29 09:45:50;;;;;;;2.75;2.53;;;;;;;26.34;100.00;98963.16;5171962;27;20520;-50
2022/07/29 09:48:18;;;;;;;1.50;1.30;;;;;;;26.73;100.00;98980.88;5171928;27;20054;-49
2022/07/29 09:50:46;;;;;;;1.67;1.42;;;;;;;26.78;100.00;98982.25;5171994;27;20060;-52
2022/07/29 09:53:30;;;;;;;1.00;1.00;;;;;;;27.34;100.00;99002.28;5171827;27;20573;-51
2022/07/29 09:55:56;;;;;;;;;;;;;;;27.28;100.00;99023.91;5172562;27;20046;-51
2022/07/29 09:58:23;;;;;;;1.85;1.75;;;;;;;27.74;100.00;99004.53;5171698;27;19977;-50
2022/07/29 10:00:50;;;;;;;3.03;1.50;;;;;;;27.17;100.00;99056.22;5171784;27;20057;-52
2022/07/29 10:03:17;;;;;;;1.60;1.25;;;;;;;26.48;100.00;99006.66;5171529;27;20474;-50
2022/07/29 10:05:45;;;;;;;1.98;1.38;;;;;;;26.46;100.00;99026.03;5172014;27;20054;-49
2022/07/29 10:08:13;;;;;;;4.15;2.00;;;;;;;26.97;100.00;98997.72;5171479;27;20065;-52
2022/07/29 10:10:41;;;;;;;1.58;1.40;;;;;;;27.50;100.00;98982.09;5171393;27;20141;-53
2022/07/29 10:13:09;;;;;;;1.48;1.25;;;;;;;26.87;100.00;99029.22;5172714;27;20078;-53
2022/07/29 10:15:39;;;;;;;1.67;1.20;;;;;;;26.94;100.00;99071.03;5175100;27;20053;-52
2022/07/29 10:18:06;;;;;;;1.50;1.40;;;;;;;26.95;100.00;98993.81;5175476;27;20512;-51
2022/07/29 10:20:33;;;;;;;4.55;1.23;;;;;;;27.29;100.00;99031.09;5175116;27;20050;-50
2022/07/29 10:22:59;;;;;;;1.08;0.98;;;;;;;26.90;100.00;99034.66;5175069;27;20465;-53
2022/07/29 10:25:26;;;;;;;4.05;1.00;;;;;;;26.23;100.00;99056.41;5175215;27;20046;-52
2022/07/29 10:27:54;;;;;;;1.33;0.82;;;;;;;26.21;100.00;99044.09;5174931;27;20133;-51
2022/07/29 10:30:22;;;;;;;1.13;1.02;;;;;;;26.42;100.00;99011.34;5174992;27;20479;-50
2022/07/29 10:33:21;;;;;;;5.85;2.00;;;;;;;26.39;100.00;99009.47;5175283;27;20072;-49
2022/07/29 10:36:00;;;;;;;2.58;1.27;;;;;;;25.81;100.00;98975.72;5175422;27;20054;-53
2022/07/29 10:38:57;;;;;;;1.52;0.90;;;;;;;25.23;100.00;98973.22;5174859;27;20056;-48
2022/07/29 10:41:47;;;;;;;2.00;0.93;;;;;;;24.99;100.00;98940.16;5175268;27;20300;-52
2022/07/29 10:44:16;;;;;;;4.85;2.40;;;;;;;24.88;100.00;98949.03;5174604;27;20050;-48
2022/07/29 10:46:44;;;;;;;1.77;1.30;;;;;;;24.64;100.00;98923.66;5174725;27;20049;-51
2022/07/29 10:49:12;;;;;;;1.80;1.60;;;;;;;24.47;100.00;98871.97;5174548;27;20098;-52
2022/07/29 10:51:59;;;;;;;1.73;1.63;;;;;;;24.64;100.00;98878.81;5174538;27;20046;-51
2022/07/29 10:54:43;;;;;;;3.38;1.23;;;;;;;24.28;100.00;98787.09;5174683;27;20061;-52
2022/07/29 10:57:15;;;;;;;2.67;1.33;;;;;;;24.80;100.00;98843.31;5174803;27;20069;-51
2022/07/29 10:59:42;;;;;;;2.38;1.40;;;;;;;25.18;100.00;98858.81;5174905;27;20042;-51
2022/07/29 11:02:44;;;;;;;1.27;1.17;;;;;;;25.55;100.00;98904.38;5174441;27;20057;-49
2022/07/29 11:05:12;;;;;;;2.28;0.98;;;;;;;25.61;100.00;98943.81;5174778;27;20129;-52
2022/07/29 11:07:40;;;;;;;3.13;1.40;;;;;;;25.48;100.00;98902.66;5174912;27;20458;-53
2022/07/29 11:10:23;;;;;;;4.03;1.40;;;;;;;25.14;100.00;98978.81;5174453;27;20113;-51
2022/07/29 11:12:51;;;;;;;0.93;0.93;;;;;;;24.88;100.00;98979.88;5174666;27;20061;-49
2022/07/29 11:15:20;;;;;;;1.08;0.90;;;;;;;24.91;100.00;98960.56;5174484;27;20050;-53
2022/07/29 11:18:08;;;;;;;1.17;1.08;;;;;;;24.62;100.00;98964.59;5174627;27;20054;-50
2022/07/29 11:20:40;;;;;;;1.30;0.85;;;;;;;24.40;100.00;98995.53;5174326;27;20054;-51
2022/07/29 11:23:26;;;;;;;2.13;1.15;;;;;;;24.14;100.00;98964.16;5174312;27;20112;-49
2022/07/29 11:26:14;;;;;;;3.70;1.25;;;;;;;24.13;100.00;98955.00;5173267;27;20053;-52
2022/07/29 11:28:54;;;;;;;1.65;1.10;;;;;;;24.21;100.00;98994.69;5173985;27;20047;-51
2022/07/29 11:31:33;;;;;;;0.80;0.80;;;;;;;24.16;100.00;98964.50;5174361;27;20043;-51
2022/07/29 11:34:17;;;;;;;1.55;0.98;;;;;;;23.86;100.00;99044.50;5174041;27;20054;-48
2022/07/29 11:37:31;;;;;;;2.38;0.88;;;;;;;23.85;100.00;99121.28;5173876;27;20484;-49
2022/07/29 11:40:13;;;;;;;1.15;0.98;;;;;;;23.74;100.00;99079.72;5174087;27;20042;-51
2022/07/29 11:42:45;;;;;;;1.75;1.13;;;;;;;23.61;100.00;99106.94;5173972;27;20054;-53
2022/07/29 11:45:14;;;;;;;2.83;1.13;;;;;;;23.75;100.00;99091.69;5173827;27;20103;-50
2022/07/29 11:47:41;;;;;;;2.28;1.63;;;;;;;23.74;100.00;99006.94;5173899;27;20469;-51
2022/07/29 11:50:10;;;;;;;3.47;1.08;;;;;;;23.66;100.00;99067.19;5173910;27;20054;-54